Time;durP1;ratioP1;P1;durP2;ratioP2;P2;SDS_P1;SDS_P2;PMS_P1;PMS_P2;Temp;Humidity;BMP_temperature;BMP_pressure;BME280_temperature;BME280_humidity;BME280_pressure;Samples;Min_cycle;Max_cycle;Signal;HPM_P1;HPM_P2
2024/01/20 00:00:24;;;;;;;36.50;21.30;;;;;;;;;;5022384;28;20203;-81
2024/01/20 00:02:52;;;;;;;38.47;21.77;;;;;;;;;;5017880;28;20224;-80
2024/01/20 00:05:19;;;;;;;35.23;19.60;;;;;;;;;;5025612;28;20213;-80
2024/01/20 00:07:46;;;;;;;36.13;20.27;;;;;;;;;;5023446;28;20713;-80
2024/01/20 00:10:14;;;;;;;28.67;17.23;;;;;;;;;;5002081;28;20307;-79
2024/01/20 00:12:42;;;;;;;25.97;15.93;;;;;;;;;;5022135;28;20251;-80
2024/01/20 00:15:10;;;;;;;27.97;16.50;;;;;;;;;;5022349;28;20692;-80
2024/01/20 00:17:39;;;;;;;29.20;16.43;;;;;;;;;;5032046;28;20207;-79
2024/01/20 00:20:08;;;;;;;29.10;15.10;;;;;;;;;;5019298;28;20202;-83
2024/01/20 00:22:36;;;;;;;24.47;13.50;;;;;;;;;;5026657;28;20238;-79
2024/01/20 00:25:04;;;;;;;22.83;13.77;;;;;;;;;;5036055;28;20207;-81
2024/01/20 00:27:31;;;;;;;22.10;13.23;;;;;;;;;;5029424;28;20310;-77
2024/01/20 00:29:59;;;;;;;23.17;12.80;;;;;;;;;;5022946;28;20275;-79
2024/01/20 00:32:28;;;;;;;20.37;12.13;;;;;;;;;;5016645;28;20218;-81
2024/01/20 00:34:56;;;;;;;20.27;12.40;;;;;;;;;;5032563;28;20217;-80
2024/01/20 00:37:34;;;;;;;23.30;13.67;;;;;;;;;;5031388;28;20206;-79
2024/01/20 00:40:04;;;;;;;28.87;16.20;;;;;;;;;;5031176;28;20207;-79
2024/01/20 00:42:31;;;;;;;25.60;15.27;;;;;;;;;;5029344;28;20239;-82
2024/01/20 00:44:59;;;;;;;26.30;13.77;;;;;;;;;;5022074;28;20213;-81
2024/01/20 00:47:26;;;;;;;25.13;13.97;;;;;;;;;;5059128;28;20213;-78
2024/01/20 00:49:54;;;;;;;22.73;13.47;;;;;;;;;;5050162;28;20693;-80
2024/01/20 00:52:22;;;;;;;27.10;14.80;;;;;;;;;;5021544;28;20305;-81
2024/01/20 00:54:50;;;;;;;31.57;16.57;;;;;;;;;;5031474;28;20673;-82
2024/01/20 00:57:17;;;;;;;29.17;17.10;;;;;;;;;;5036386;28;20577;-79
2024/01/20 00:59:45;;;;;;;31.23;18.50;;;;;;;;;;5030142;28;20229;-79
2024/01/20 01:02:15;;;;;;;32.97;19.03;;;;;;;;;;5033560;28;20244;-81
2024/01/20 01:04:43;;;;;;;28.47;17.23;;;;;;;;;;5038002;28;20199;-83
2024/01/20 01:07:11;;;;;;;32.50;17.23;;;;;;;;;;5029329;28;20231;-79
2024/01/20 01:09:38;;;;;;;31.40;18.00;;;;;;;;;;5026146;28;20211;-81
2024/01/20 01:12:05;;;;;;;35.97;19.33;;;;;;;;;;5022237;28;20210;-81
2024/01/20 01:14:33;;;;;;;35.33;18.80;;;;;;;;;;5033326;28;20832;-79
2024/01/20 01:17:00;;;;;;;35.00;18.63;;;;;;;;;;5029753;28;20299;-79
2024/01/20 01:19:27;;;;;;;34.47;19.20;;;;;;;;;;5038406;28;20212;-78
2024/01/20 01:21:54;;;;;;;35.97;19.67;;;;;;;;;;5030855;28;20263;-79
2024/01/20 01:24:22;;;;;;;35.17;20.17;;;;;;;;;;5026264;28;20206;-77
2024/01/20 01:26:49;;;;;;;40.27;20.40;;;;;;;;;;5032463;28;20209;-80
2024/01/20 01:29:16;;;;;;;39.03;19.33;;;;;;;;;;5036752;28;20781;-81
2024/01/20 01:31:44;;;;;;;36.27;20.67;;;;;;;;;;5019764;28;20201;-80
2024/01/20 01:34:11;;;;;;;38.40;19.13;;;;;;;;;;5012118;28;20225;-81
2024/01/20 01:36:39;;;;;;;32.87;19.47;;;;;;;;;;5036399;28;20212;-80
2024/01/20 01:39:06;;;;;;;39.03;20.67;;;;;;;;;;5035489;28;20216;-80
2024/01/20 01:41:33;;;;;;;41.80;20.80;;;;;;;;;;5021542;28;20224;-81
2024/01/20 01:44:02;;;;;;;40.87;20.23;;;;;;;;;;5007010;28;20457;-78
2024/01/20 01:46:30;;;;;;;32.40;18.10;;;;;;;;;;5028271;28;20213;-80
2024/01/20 01:48:57;;;;;;;32.63;18.20;;;;;;;;;;5037139;28;20227;-79
2024/01/20 01:51:25;;;;;;;29.30;16.53;;;;;;;;;;5031444;28;20202;-81
2024/01/20 01:53:52;;;;;;;28.10;16.23;;;;;;;;;;5022430;28;20226;-81
2024/01/20 01:56:20;;;;;;;29.73;16.90;;;;;;;;;;5026700;28;20228;-79
2024/01/20 01:58:47;;;;;;;28.17;16.57;;;;;;;;;;5032845;28;20209;-81
2024/01/20 02:01:15;;;;;;;34.40;17.53;;;;;;;;;;5029369;28;20260;-80
2024/01/20 02:03:42;;;;;;;33.23;18.37;;;;;;;;;;5036055;28;20223;-81
2024/01/20 02:06:09;;;;;;;29.33;17.77;;;;;;;;;;5012738;28;20249;-83
2024/01/20 02:08:41;;;;;;;31.73;17.87;;;;;;;;;;5030702;28;20243;-82
2024/01/20 02:11:09;;;;;;;34.47;18.53;;;;;;;;;;5031796;28;20258;-81
2024/01/20 02:13:36;;;;;;;36.23;18.53;;;;;;;;;;5030198;28;20221;-79
2024/01/20 02:16:04;;;;;;;35.30;18.67;;;;;;;;;;5030170;28;20227;-79
2024/01/20 02:18:31;;;;;;;39.73;20.47;;;;;;;;;;5026806;28;20215;-78
2024/01/20 02:20:59;;;;;;;31.57;19.10;;;;;;;;;;5018400;28;20674;-79
2024/01/20 02:23:26;;;;;;;30.90;17.80;;;;;;;;;;5008815;28;20231;-80
2024/01/20 02:25:55;;;;;;;30.10;18.33;;;;;;;;;;5034300;28;20263;-82
2024/01/20 02:28:22;;;;;;;37.60;19.47;;;;;;;;;;5031208;28;20759;-80
2024/01/20 02:30:49;;;;;;;41.37;20.27;;;;;;;;;;5035571;28;20663;-79
2024/01/20 02:33:16;;;;;;;46.97;24.20;;;;;;;;;;5019750;28;20773;-81
2024/01/20 02:35:43;;;;;;;42.60;20.80;;;;;;;;;;5035941;28;20298;-81
2024/01/20 02:38:11;;;;;;;36.03;18.47;;;;;;;;;;5031342;28;20274;-79
2024/01/20 02:40:38;;;;;;;34.30;16.80;;;;;;;;;;5033855;28;20213;-79
2024/01/20 02:43:05;;;;;;;36.57;19.17;;;;;;;;;;5018230;28;20231;-81
2024/01/20 02:45:32;;;;;;;37.37;20.33;;;;;;;;;;5013118;28;20243;-80
2024/01/20 02:48:00;;;;;;;48.03;23.97;;;;;;;;;;5020333;28;20256;-81
2024/01/20 02:50:27;;;;;;;44.67;22.67;;;;;;;;;;5030668;28;20214;-81
2024/01/20 02:52:55;;;;;;;49.90;22.17;;;;;;;;;;5028981;28;20224;-79
2024/01/20 02:55:22;;;;;;;39.80;20.93;;;;;;;;;;5011769;28;20710;-82
2024/01/20 02:57:49;;;;;;;37.67;17.50;;;;;;;;;;5030125;28;20201;-82
2024/01/20 03:00:16;;;;;;;31.97;17.17;;;;;;;;;;5016602;28;20206;-82
2024/01/20 03:02:44;;;;;;;31.37;16.80;;;;;;;;;;5028095;28;20226;-81
2024/01/20 03:05:11;;;;;;;30.77;17.10;;;;;;;;;;5025372;28;20215;-80
2024/01/20 03:07:38;;;;;;;28.87;16.97;;;;;;;;;;5022825;28;20202;-82
2024/01/20 03:10:06;;;;;;;33.57;16.47;;;;;;;;;;5035510;28;20629;-79
2024/01/20 03:12:33;;;;;;;33.13;16.50;;;;;;;;;;5030944;28;20219;-80
2024/01/20 03:15:01;;;;;;;34.87;17.23;;;;;;;;;;5009959;28;20248;-81
2024/01/20 03:17:29;;;;;;;38.23;18.07;;;;;;;;;;5008870;28;20206;-79
2024/01/20 03:19:56;;;;;;;36.13;17.57;;;;;;;;;;5033039;28;20612;-80
2024/01/20 03:22:23;;;;;;;41.77;18.70;;;;;;;;;;5028348;28;20647;-83
2024/01/20 03:24:51;;;;;;;48.13;19.80;;;;;;;;;;5033329;28;20221;-81
2024/01/20 03:27:18;;;;;;;40.43;19.30;;;;;;;;;;5018864;28;20263;-82
2024/01/20 03:29:45;;;;;;;41.90;18.40;;;;;;;;;;5029322;28;20227;-81
2024/01/20 03:32:13;;;;;;;42.53;18.03;;;;;;;;;;5011189;28;20230;-81
2024/01/20 03:34:40;;;;;;;38.27;19.10;;;;;;;;;;5030137;28;20207;-81
2024/01/20 03:37:07;;;;;;;36.43;18.60;;;;;;;;;;5030598;28;20483;-81
2024/01/20 03:39:35;;;;;;;42.17;18.80;;;;;;;;;;5013331;28;20213;-82
2024/01/20 03:42:03;;;;;;;61.27;19.00;;;;;;;;;;5033510;28;20207;-80
2024/01/20 03:44:30;;;;;;;42.77;18.13;;;;;;;;;;5032071;28;20215;-78
2024/01/20 03:46:57;;;;;;;40.23;18.73;;;;;;;;;;5014560;28;20216;-83
2024/01/20 03:49:25;;;;;;;41.63;19.23;;;;;;;;;;5015036;28;20231;-81
2024/01/20 03:51:53;;;;;;;36.23;18.43;;;;;;;;;;5023409;28;20210;-82
2024/01/20 03:54:20;;;;;;;47.70;19.80;;;;;;;;;;5038025;28;20275;-80
2024/01/20 03:56:47;;;;;;;41.00;18.63;;;;;;;;;;5029924;28;20217;-81
2024/01/20 03:59:14;;;;;;;43.00;20.23;;;;;;;;;;5036448;28;20209;-79
2024/01/20 04:01:42;;;;;;;47.40;18.47;;;;;;;;;;5022976;28;20297;-82
2024/01/20 04:04:09;;;;;;;49.70;19.80;;;;;;;;;;5034520;28;20218;-80
2024/01/20 04:06:37;;;;;;;43.43;18.37;;;;;;;;;;5026828;28;20199;-79
2024/01/20 04:09:04;;;;;;;41.10;19.37;;;;;;;;;;5024491;28;20219;-83
2024/01/20 04:11:31;;;;;;;34.90;17.77;;;;;;;;;;5027900;28;20207;-81
2024/01/20 04:13:59;;;;;;;36.47;17.63;;;;;;;;;;5026710;28;20285;-81
2024/01/20 04:16:26;;;;;;;52.27;18.83;;;;;;;;;;5028922;28;20692;-81
2024/01/20 04:18:53;;;;;;;57.93;18.17;;;;;;;;;;5033541;28;20268;-81
2024/01/20 04:21:21;;;;;;;40.93;17.80;;;;;;;;;;5035448;28;20205;-83
2024/01/20 04:23:48;;;;;;;49.00;17.50;;;;;;;;;;5024137;28;20254;-79
2024/01/20 04:26:16;;;;;;;39.80;17.83;;;;;;;;;;5024245;28;20735;-81
2024/01/20 04:28:43;;;;;;;42.50;18.97;;;;;;;;;;5009560;28;20250;-82
2024/01/20 04:31:10;;;;;;;52.63;17.70;;;;;;;;;;5031162;28;20198;-80
2024/01/20 04:33:39;;;;;;;46.97;17.90;;;;;;;;;;5030341;28;20254;-80
2024/01/20 04:36:06;;;;;;;34.90;17.10;;;;;;;;;;5031017;28;20617;-81
2024/01/20 04:38:35;;;;;;;42.43;17.80;;;;;;;;;;5027184;28;20233;-81
2024/01/20 04:41:02;;;;;;;42.13;17.03;;;;;;;;;;5024056;28;20249;-80
2024/01/20 04:43:29;;;;;;;37.10;17.20;;;;;;;;;;5022138;28;20227;-80
2024/01/20 04:45:56;;;;;;;37.20;17.90;;;;;;;;;;5026241;28;20260;-80
2024/01/20 04:48:24;;;;;;;35.20;17.80;;;;;;;;;;5029538;28;20222;-81
2024/01/20 04:50:51;;;;;;;34.97;16.47;;;;;;;;;;5025159;28;20203;-80
2024/01/20 04:53:18;;;;;;;33.73;16.67;;;;;;;;;;5032445;28;20685;-81
2024/01/20 04:55:46;;;;;;;32.67;16.90;;;;;;;;;;5025664;28;20218;-78
2024/01/20 04:58:13;;;;;;;31.40;15.30;;;;;;;;;;5009368;28;20244;-81
2024/01/20 05:00:40;;;;;;;27.70;14.80;;;;;;;;;;5021675;28;20265;-81
2024/01/20 05:03:08;;;;;;;30.27;15.93;;;;;;;;;;5026989;28;20709;-80
2024/01/20 05:05:35;;;;;;;29.93;15.33;;;;;;;;;;5009059;28;20200;-81
2024/01/20 05:08:02;;;;;;;31.37;14.93;;;;;;;;;;5030320;28;20203;-79
2024/01/20 05:10:29;;;;;;;25.03;14.33;;;;;;;;;;5022910;28;20699;-81
2024/01/20 05:12:56;;;;;;;27.63;15.47;;;;;;;;;;5026221;28;20258;-80
2024/01/20 05:15:24;;;;;;;27.53;15.20;;;;;;;;;;5023675;28;20199;-82
2024/01/20 05:17:52;;;;;;;24.13;13.83;;;;;;;;;;5010445;28;20293;-81
2024/01/20 05:20:19;;;;;;;26.90;15.67;;;;;;;;;;5030545;28;20202;-81
2024/01/20 05:22:48;;;;;;;39.93;21.27;;;;;;;;;;5021029;28;20400;-80
2024/01/20 05:25:15;;;;;;;34.83;20.10;;;;;;;;;;5019718;28;20206;-80
2024/01/20 05:27:42;;;;;;;44.00;20.50;;;;;;;;;;5025503;28;20272;-82
2024/01/20 05:30:11;;;;;;;58.40;26.33;;;;;;;;;;5025598;28;20298;-77
2024/01/20 05:32:42;;;;;;;51.30;23.53;;;;;;;;;;5028498;28;20285;-81
2024/01/20 05:35:09;;;;;;;42.17;21.67;;;;;;;;;;5026480;28;20301;-81
2024/01/20 05:37:37;;;;;;;49.10;23.37;;;;;;;;;;5027344;28;20203;-82
2024/01/20 05:40:05;;;;;;;46.90;23.80;;;;;;;;;;5029927;28;20215;-80
2024/01/20 05:42:32;;;;;;;52.40;26.77;;;;;;;;;;5032624;28;20256;-82
2024/01/20 05:45:00;;;;;;;55.67;29.50;;;;;;;;;;5015921;28;20685;-82
2024/01/20 05:47:27;;;;;;;48.37;24.03;;;;;;;;;;5023538;28;20203;-80
2024/01/20 05:49:54;;;;;;;65.50;27.97;;;;;;;;;;5029925;28;20277;-81
2024/01/20 05:52:21;;;;;;;51.63;24.47;;;;;;;;;;5013038;28;20272;-82
2024/01/20 05:54:49;;;;;;;49.67;22.80;;;;;;;;;;5020923;28;20211;-79
2024/01/20 05:57:16;;;;;;;46.00;20.80;;;;;;;;;;5034668;28;20206;-82
2024/01/20 05:59:43;;;;;;;32.10;17.00;;;;;;;;;;5030464;28;20693;-82
2024/01/20 06:02:11;;;;;;;29.87;16.30;;;;;;;;;;5006580;28;20217;-80
2024/01/20 06:04:38;;;;;;;29.10;16.10;;;;;;;;;;5010350;28;20207;-78
2024/01/20 06:07:05;;;;;;;28.70;15.87;;;;;;;;;;5030677;28;20293;-82
2024/01/20 06:09:32;;;;;;;33.30;16.53;;;;;;;;;;5027992;28;20222;-81
2024/01/20 06:12:00;;;;;;;27.97;15.43;;;;;;;;;;5025776;28;20549;-81
2024/01/20 06:14:27;;;;;;;31.90;17.40;;;;;;;;;;5012791;28;20259;-80
2024/01/20 06:16:54;;;;;;;33.30;18.20;;;;;;;;;;5019571;28;20272;-81
2024/01/20 06:19:21;;;;;;;41.13;19.67;;;;;;;;;;5031028;28;20782;-83
2024/01/20 06:21:49;;;;;;;34.00;18.10;;;;;;;;;;5020562;28;20577;-81
2024/01/20 06:24:16;;;;;;;34.63;18.00;;;;;;;;;;5027565;28;20275;-80
2024/01/20 06:26:43;;;;;;;34.17;18.33;;;;;;;;;;5022980;28;20878;-81
2024/01/20 06:29:11;;;;;;;33.93;18.60;;;;;;;;;;5015931;28;20287;-81
2024/01/20 06:31:38;;;;;;;36.00;18.87;;;;;;;;;;5030064;28;20262;-80
2024/01/20 06:34:06;;;;;;;33.67;18.80;;;;;;;;;;5017693;28;20271;-80
2024/01/20 06:36:33;;;;;;;38.63;20.97;;;;;;;;;;5025827;28;20203;-80
2024/01/20 06:39:00;;;;;;;39.03;20.67;;;;;;;;;;5010273;28;20808;-81
2024/01/20 06:41:27;;;;;;;32.13;18.90;;;;;;;;;;5002325;28;20213;-80
2024/01/20 06:43:54;;;;;;;34.07;18.63;;;;;;;;;;5032704;28;20319;-81
2024/01/20 06:46:22;;;;;;;42.13;20.03;;;;;;;;;;5005846;28;20221;-80
2024/01/20 06:48:50;;;;;;;38.73;20.47;;;;;;;;;;5008921;28;20248;-80
2024/01/20 06:51:17;;;;;;;36.73;19.97;;;;;;;;;;5023432;28;20206;-79
2024/01/20 06:53:45;;;;;;;36.07;19.90;;;;;;;;;;5028987;28;20227;-81
2024/01/20 06:56:12;;;;;;;34.47;19.67;;;;;;;;;;5031791;28;20272;-81
2024/01/20 06:58:39;;;;;;;32.87;19.30;;;;;;;;;;5030783;28;20237;-83
2024/01/20 07:01:06;;;;;;;36.77;19.97;;;;;;;;;;5028399;28;20263;-80
2024/01/20 07:03:34;;;;;;;41.90;19.80;;;;;;;;;;5027191;28;20234;-77
2024/01/20 07:06:02;;;;;;;32.93;17.50;;;;;;;;;;5032216;28;20222;-78
2024/01/20 07:08:30;;;;;;;34.57;18.80;;;;;;;;;;5031293;28;20202;-80
2024/01/20 07:10:57;;;;;;;32.87;17.63;;;;;;;;;;5020503;28;20226;-82
2024/01/20 07:13:24;;;;;;;36.77;19.77;;;;;;;;;;5009840;28;20219;-83
2024/01/20 07:15:51;;;;;;;40.23;24.03;;;;;;;;;;5028400;28;20693;-81
2024/01/20 07:18:18;;;;;;;46.30;25.97;;;;;;;;;;5012500;28;20202;-80
2024/01/20 07:20:46;;;;;;;54.97;28.07;;;;;;;;;;5011619;28;20206;-79
2024/01/20 07:23:14;;;;;;;51.83;27.57;;;;;;;;;;5023367;28;20221;-78
2024/01/20 07:25:42;;;;;;;46.13;24.57;;;;;;;;;;5031924;28;20245;-78
2024/01/20 07:28:09;;;;;;;39.53;22.23;;;;;;;;;;5033118;28;20267;-82
2024/01/20 07:30:37;;;;;;;45.40;24.93;;;;;;;;;;5027010;28;20250;-82
2024/01/20 07:33:04;;;;;;;54.90;27.67;;;;;;;;;;5010013;28;20219;-80
2024/01/20 07:35:32;;;;;;;59.00;27.57;;;;;;;;;;5020136;28;20204;-82
2024/01/20 07:37:59;;;;;;;42.07;23.50;;;;;;;;;;5028163;28;20650;-81
2024/01/20 07:40:26;;;;;;;38.63;21.97;;;;;;;;;;5031032;28;20728;-79
2024/01/20 07:42:54;;;;;;;32.83;16.60;;;;;;;;;;5020621;28;20410;-80
2024/01/20 07:45:22;;;;;;;36.00;19.30;;;;;;;;;;5019729;28;20198;-81
2024/01/20 07:47:49;;;;;;;37.67;18.63;;;;;;;;;;5027846;28;20242;-79
2024/01/20 07:50:17;;;;;;;36.40;19.23;;;;;;;;;;5006790;28;20579;-82
2024/01/20 07:52:45;;;;;;;33.33;19.07;;;;;;;;;;5009676;28;20223;-78
2024/01/20 07:55:16;;;;;;;38.07;20.87;;;;;;;;;;5021830;28;20222;-82
2024/01/20 07:57:44;;;;;;;37.67;21.53;;;;;;;;;;5028664;28;20203;-81
2024/01/20 08:00:11;;;;;;;40.53;19.90;;;;;;;;;;5012556;28;20214;-78
2024/01/20 08:02:39;;;;;;;35.93;19.47;;;;;;;;;;5005551;28;20230;-82
2024/01/20 08:05:07;;;;;;;42.33;23.03;;;;;;;;;;5004740;28;20826;-81
2024/01/20 08:07:34;;;;;;;35.70;21.70;;;;;;;;;;5029240;28;20200;-80
2024/01/20 08:10:01;;;;;;;38.57;23.93;;;;;;;;;;5029930;28;20593;-80
2024/01/20 08:12:29;;;;;;;49.20;27.33;;;;;;;;;;5009306;28;20224;-80
2024/01/20 08:14:56;;;;;;;48.67;27.83;;;;;;;;;;5019995;28;20211;-80
2024/01/20 08:17:23;;;;;;;51.83;27.43;;;;;;;;;;5025995;28;20208;-81
2024/01/20 08:19:51;;;;;;;46.77;26.07;;;;;;;;;;5026668;28;20290;-80
2024/01/20 08:22:19;;;;;;;47.53;25.63;;;;;;;;;;5026869;28;20222;-80
2024/01/20 08:24:47;;;;;;;46.60;25.00;;;;;;;;;;5010174;28;20266;-77
2024/01/20 08:27:14;;;;;;;45.47;25.10;;;;;;;;;;5014742;28;20214;-80
2024/01/20 08:29:41;;;;;;;49.57;25.87;;;;;;;;;;5036185;28;20295;-77
2024/01/20 08:32:09;;;;;;;45.43;25.33;;;;;;;;;;5028431;28;20216;-77
2024/01/20 08:34:37;;;;;;;45.60;23.90;;;;;;;;;;5023786;28;20656;-79
2024/01/20 08:37:04;;;;;;;48.47;24.50;;;;;;;;;;5027302;28;20202;-83
2024/01/20 08:39:32;;;;;;;38.23;22.47;;;;;;;;;;5028881;28;20262;-82
2024/01/20 08:41:59;;;;;;;39.03;21.17;;;;;;;;;;5023402;28;20254;-83
2024/01/20 08:44:27;;;;;;;38.47;20.77;;;;;;;;;;5029968;28;20638;-80
2024/01/20 08:46:55;;;;;;;32.67;19.17;;;;;;;;;;5027229;28;20265;-80
2024/01/20 08:49:23;;;;;;;44.47;21.87;;;;;;;;;;5029715;28;20206;-83
2024/01/20 08:51:50;;;;;;;39.00;20.60;;;;;;;;;;5035569;28;21174;-84
2024/01/20 08:54:17;;;;;;;43.27;21.43;;;;;;;;;;5048898;28;20255;-78
2024/01/20 08:56:45;;;;;;;38.67;19.80;;;;;;;;;;5056606;28;20287;-77
2024/01/20 08:59:12;;;;;;;43.03;20.47;;;;;;;;;;5048004;28;20270;-78
2024/01/20 09:01:39;;;;;;;45.77;20.30;;;;;;;;;;5025099;28;20769;-83
2024/01/20 09:04:07;;;;;;;33.67;18.30;;;;;;;;;;5019028;28;20222;-81
2024/01/20 09:06:34;;;;;;;30.53;16.57;;;;;;;;;;5018219;28;20308;-83
2024/01/20 09:09:01;;;;;;;25.13;15.53;;;;;;;;;;4998711;28;20255;-84
2024/01/20 09:11:29;;;;;;;26.27;14.80;;;;;;;;;;5024225;28;20227;-81
2024/01/20 09:13:56;;;;;;;27.37;16.20;;;;;;;;;;5022173;28;20289;-83
2024/01/20 09:16:23;;;;;;;24.23;15.47;;;;;;;;;;5004408;28;20210;-83
2024/01/20 09:18:51;;;;;;;29.70;14.87;;;;;;;;;;5026455;28;20433;-76
2024/01/20 09:21:19;;;;;;;24.90;13.93;;;;;;;;;;5008706;28;20301;-82
2024/01/20 09:23:46;;;;;;;24.00;14.40;;;;;;;;;;5022306;28;20231;-82
2024/01/20 09:26:14;;;;;;;26.27;16.60;;;;;;;;;;5026101;28;20226;-81
2024/01/20 09:28:41;;;;;;;27.17;15.47;;;;;;;;;;5013775;28;20206;-82
2024/01/20 09:31:08;;;;;;;26.33;15.80;;;;;;;;;;5031409;28;20256;-82
2024/01/20 09:33:36;;;;;;;23.90;15.00;;;;;;;;;;5025599;28;20221;-80
2024/01/20 09:36:04;;;;;;;27.57;15.20;;;;;;;;;;5011109;28;20675;-81
2024/01/20 09:38:32;;;;;;;25.83;16.30;;;;;;;;;;5029086;28;20208;-78
2024/01/20 09:40:59;;;;;;;23.90;15.07;;;;;;;;;;5034584;28;20203;-82
2024/01/20 09:43:30;;;;;;;24.70;14.93;;;;;;;;;;5037264;28;20234;-83
2024/01/20 09:45:59;;;;;;;22.10;14.10;;;;;;;;;;5028777;28;20210;-80
2024/01/20 09:48:27;;;;;;;23.63;14.10;;;;;;;;;;5033394;28;20682;-84
2024/01/20 09:50:55;;;;;;;22.57;14.17;;;;;;;;;;5022290;28;20226;-79
2024/01/20 09:53:22;;;;;;;22.93;13.87;;;;;;;;;;5034428;28;20767;-80
2024/01/20 09:55:49;;;;;;;23.80;14.00;;;;;;;;;;5008716;28;20251;-81
2024/01/20 09:58:17;;;;;;;20.27;13.27;;;;;;;;;;5021054;28;20207;-83
2024/01/20 10:00:44;;;;;;;24.10;14.10;;;;;;;;;;5023117;28;20222;-82
2024/01/20 10:03:12;;;;;;;21.27;14.37;;;;;;;;;;5020025;28;20665;-78
2024/01/20 10:05:40;;;;;;;23.57;14.13;;;;;;;;;;5028327;28;20210;-80
2024/01/20 10:08:07;;;;;;;25.40;13.27;;;;;;;;;;5032674;28;20233;-81
2024/01/20 10:10:35;;;;;;;19.37;12.40;;;;;;;;;;5031583;28;20234;-81
2024/01/20 10:13:02;;;;;;;20.60;11.63;;;;;;;;;;5035375;28;20240;-80
2024/01/20 10:15:30;;;;;;;18.03;12.60;;;;;;;;;;5030149;28;20214;-81
2024/01/20 10:18:10;;;;;;;18.10;12.17;;;;;;;;;;5015423;28;20452;-82
2024/01/20 10:20:39;;;;;;;14.93;8.97;;;;;;;;;;5031056;28;20745;-82
2024/01/20 10:23:07;;;;;;;11.03;7.73;;;;;;;;;;5021884;28;20657;-82
2024/01/20 10:25:35;;;;;;;11.67;8.27;;;;;;;;;;5030446;28;20291;-78
2024/01/20 10:28:02;;;;;;;8.97;6.97;;;;;;;;;;5014983;28;20344;-84
2024/01/20 10:30:30;;;;;;;12.23;8.30;;;;;;;;;;5014076;28;20233;-81
2024/01/20 10:33:02;;;;;;;15.00;8.93;;;;;;;;;;5039024;28;20226;-79
2024/01/20 10:35:37;;;;;;;12.00;7.53;;;;;;;;;;5017461;28;20212;-80
2024/01/20 10:38:07;;;;;;;13.03;8.93;;;;;;;;;;5029010;28;20214;-81
2024/01/20 10:40:37;;;;;;;14.83;11.20;;;;;;;;;;5017505;28;20222;-77
2024/01/20 10:43:15;;;;;;;13.37;10.33;;;;;;;;;;5028726;28;20227;-83
2024/01/20 10:46:01;;;;;;;10.87;8.47;;;;;;;;;;5032148;28;20217;-82
2024/01/20 10:48:30;;;;;;;11.67;7.27;;;;;;;;;;5032834;28;20325;-79
2024/01/20 10:50:58;;;;;;;11.40;8.57;;;;;;;;;;5051685;28;20221;-78
2024/01/20 10:53:26;;;;;;;10.67;7.60;;;;;;;;;;5050028;28;20249;-75
2024/01/20 10:55:53;;;;;;;10.37;6.33;;;;;;;;;;5042588;28;20215;-79
2024/01/20 10:58:24;;;;;;;7.57;6.23;;;;;;;;;;5023241;28;20264;-80
2024/01/20 11:00:52;;;;;;;13.00;8.87;;;;;;;;;;5036597;28;20214;-81
2024/01/20 11:03:19;;;;;;;11.60;7.70;;;;;;;;;;5029550;28;20222;-81
2024/01/20 11:05:47;;;;;;;9.20;6.63;;;;;;;;;;5001666;28;20239;-78
2024/01/20 11:08:23;;;;;;;10.67;7.50;;;;;;;;;;5009050;28;20240;-79
2024/01/20 11:10:51;;;;;;;6.37;5.10;;;;;;;;;;5034747;28;20234;-81
2024/01/20 11:13:19;;;;;;;5.70;4.83;;;;;;;;;;5029807;28;20222;-83
2024/01/20 11:15:49;;;;;;;8.57;6.00;;;;;;;;;;5033100;28;20622;-81
2024/01/20 11:18:17;;;;;;;6.43;4.87;;;;;;;;;;5033589;28;20198;-80
2024/01/20 11:20:54;;;;;;;8.43;5.30;;;;;;;;;;5037712;28;20293;-82
2024/01/20 11:23:22;;;;;;;5.67;4.63;;;;;;;;;;5029898;28;20265;-79
2024/01/20 11:25:49;;;;;;;8.53;5.63;;;;;;;;;;5035321;28;20207;-83
2024/01/20 11:28:43;;;;;;;6.33;5.10;;;;;;;;;;5034799;28;20299;-80
2024/01/20 11:31:20;;;;;;;6.27;5.30;;;;;;;;;;5027728;28;20285;-77
2024/01/20 11:33:47;;;;;;;5.53;4.80;;;;;;;;;;5034456;28;20732;-79
2024/01/20 11:36:15;;;;;;;6.10;4.72;;;;;;;;;;5028866;28;20620;-83
2024/01/20 11:38:44;;;;;;;6.20;4.73;;;;;;;;;;5020262;28;20203;-80
2024/01/20 11:41:12;;;;;;;10.40;7.63;;;;;;;;;;5005934;28;20203;-82
2024/01/20 11:43:46;;;;;;;5.40;4.60;;;;;;;;;;5015132;28;20650;-80
2024/01/20 11:46:14;;;;;;;7.20;5.10;;;;;;;;;;5019401;28;20206;-80
2024/01/20 11:48:42;;;;;;;6.30;4.63;;;;;;;;;;5021419;28;20256;-80
2024/01/20 11:51:10;;;;;;;8.00;4.87;;;;;;;;;;5019530;28;20222;-77
2024/01/20 11:53:38;;;;;;;5.37;3.93;;;;;;;;;;5019966;28;20223;-80
2024/01/20 11:56:05;;;;;;;6.50;4.07;;;;;;;;;;5021574;28;20305;-82
2024/01/20 11:58:33;;;;;;;6.20;4.67;;;;;;;;;;5020771;28;20589;-81
2024/01/20 12:01:02;;;;;;;4.93;3.77;;;;;;;;;;5031059;28;20669;-82
2024/01/20 12:03:30;;;;;;;5.13;3.77;;;;;;;;;;5025604;28;20265;-76
2024/01/20 12:06:04;;;;;;;4.77;3.80;;;;;;;;;;5006309;28;20774;-79
2024/01/20 12:08:32;;;;;;;4.77;3.93;;;;;;;;;;5021454;28;20218;-78
2024/01/20 12:11:00;;;;;;;7.27;4.27;;;;;;;;;;5015514;28;20285;-82
2024/01/20 12:13:32;;;;;;;5.83;4.17;;;;;;;;;;5024661;28;20227;-80
2024/01/20 12:16:00;;;;;;;4.63;3.90;;;;;;;;;;5004268;28;20216;-78
2024/01/20 12:18:27;;;;;;;4.40;3.90;;;;;;;;;;5011539;28;20550;-82
2024/01/20 12:20:54;;;;;;;6.83;4.33;;;;;;;;;;5006937;28;20226;-79
2024/01/20 12:23:22;;;;;;;4.20;3.47;;;;;;;;;;4989987;28;20234;-85
2024/01/20 12:25:53;;;;;;;4.80;3.77;;;;;;;;;;4988270;28;20214;-75
2024/01/20 12:28:21;;;;;;;4.87;3.80;;;;;;;;;;5021244;28;20229;-83
2024/01/20 12:30:48;;;;;;;5.63;3.60;;;;;;;;;;5037606;28;20365;-80
2024/01/20 12:33:16;;;;;;;4.03;3.57;;;;;;;;;;5037001;28;20501;-83
2024/01/20 12:35:43;;;;;;;6.20;4.57;;;;;;;;;;5030730;28;20692;-80
2024/01/20 12:38:11;;;;;;;5.10;3.80;;;;;;;;;;5027445;28;20261;-79
2024/01/20 12:40:38;;;;;;;7.07;4.13;;;;;;;;;;5010438;28;20273;-81
2024/01/20 12:43:05;;;;;;;6.27;4.33;;;;;;;;;;5026045;28;20234;-81
2024/01/20 12:45:32;;;;;;;7.90;4.03;;;;;;;;;;5023236;28;20260;-78
2024/01/20 12:48:00;;;;;;;5.40;4.77;;;;;;;;;;5021526;28;20211;-79
2024/01/20 12:50:28;;;;;;;5.60;4.27;;;;;;;;;;5021318;28;20584;-74
2024/01/20 12:52:55;;;;;;;5.67;4.80;;;;;;;;;;5029592;28;20229;-84
2024/01/20 12:55:22;;;;;;;6.20;5.00;;;;;;;;;;5008333;28;20216;-80
2024/01/20 12:57:50;;;;;;;5.70;5.10;;;;;;;;;;5022517;28;20271;-80
2024/01/20 13:00:18;;;;;;;5.60;5.00;;;;;;;;;;5027266;28;20214;-82
2024/01/20 13:02:45;;;;;;;8.63;4.60;;;;;;;;;;5002512;28;20226;-80
2024/01/20 13:05:13;;;;;;;6.27;4.97;;;;;;;;;;4993630;28;21064;-78
2024/01/20 13:07:40;;;;;;;6.30;4.77;;;;;;;;;;4987659;28;20201;-79
2024/01/20 13:10:08;;;;;;;6.80;5.10;;;;;;;;;;5009678;28;20207;-79
2024/01/20 13:12:35;;;;;;;8.60;5.77;;;;;;;;;;5022387;28;20239;-79
2024/01/20 13:15:02;;;;;;;6.37;5.13;;;;;;;;;;5011105;28;20564;-81
2024/01/20 13:17:30;;;;;;;7.27;4.80;;;;;;;;;;5004625;28;20203;-81
2024/01/20 13:19:57;;;;;;;6.83;5.13;;;;;;;;;;5008274;28;20199;-81
2024/01/20 13:22:26;;;;;;;6.30;4.60;;;;;;;;;;5000450;28;20720;-81
2024/01/20 13:24:56;;;;;;;7.53;5.07;;;;;;;;;;5006121;28;20415;-81
2024/01/20 13:27:24;;;;;;;5.60;4.43;;;;;;;;;;5005951;28;20219;-79
2024/01/20 13:29:51;;;;;;;4.80;4.03;;;;;;;;;;5008087;28;20657;-81
2024/01/20 13:32:18;;;;;;;8.37;4.90;;;;;;;;;;5007504;28;20227;-81
2024/01/20 13:34:46;;;;;;;4.93;4.13;;;;;;;;;;5010858;28;20238;-76
2024/01/20 13:37:13;;;;;;;4.80;3.73;;;;;;;;;;5014646;28;20218;-79
2024/01/20 13:39:40;;;;;;;4.77;4.10;;;;;;;;;;4998786;28;20199;-79
2024/01/20 13:42:09;;;;;;;5.53;4.27;;;;;;;;;;5010359;28;20576;-82
2024/01/20 13:44:37;;;;;;;4.80;3.80;;;;;;;;;;5008769;28;20207;-81
2024/01/20 13:47:11;;;;;;;6.67;4.40;;;;;;;;;;5011814;28;20207;-78
2024/01/20 13:49:38;;;;;;;4.97;4.03;;;;;;;;;;5018409;28;20219;-79
2024/01/20 13:52:05;;;;;;;6.17;4.40;;;;;;;;;;5035618;28;20234;-81
2024/01/20 13:54:33;;;;;;;6.20;4.40;;;;;;;;;;5035222;28;20207;-75
2024/01/20 13:57:00;;;;;;;6.63;5.03;;;;;;;;;;5034471;28;20296;-78
2024/01/20 13:59:27;;;;;;;7.47;5.07;;;;;;;;;;5025784;28;20207;-74
2024/01/20 14:01:55;;;;;;;7.00;4.93;;;;;;;;;;5004216;28;20925;-77
2024/01/20 14:04:23;;;;;;;6.50;4.40;;;;;;;;;;5025440;28;20234;-78
2024/01/20 14:06:51;;;;;;;13.33;6.37;;;;;;;;;;5022165;28;20207;-79
2024/01/20 14:09:19;;;;;;;10.77;6.93;;;;;;;;;;5006916;28;20547;-82
2024/01/20 14:11:47;;;;;;;7.30;4.93;;;;;;;;;;5000158;28;20223;-78
2024/01/20 14:14:14;;;;;;;6.33;4.30;;;;;;;;;;5018452;28;20241;-79
2024/01/20 14:16:41;;;;;;;4.73;3.37;;;;;;;;;;5006996;28;20214;-81
2024/01/20 14:19:09;;;;;;;4.23;3.13;;;;;;;;;;5005421;28;20721;-78
2024/01/20 14:21:36;;;;;;;4.10;3.50;;;;;;;;;;5001081;28;20213;-77
2024/01/20 14:24:04;;;;;;;2.77;2.50;;;;;;;;;;4985474;28;20761;-79
2024/01/20 14:26:31;;;;;;;4.57;3.70;;;;;;;;;;4992607;28;20212;-77